createdAt,value
2023-02-17T00:02:03.812Z,4.16
2023-02-17T00:04:34.706Z,4.15
2023-02-17T00:07:04.898Z,4.16
2023-02-17T00:09:35.090Z,4.14
2023-02-17T00:12:05.379Z,4.15
2023-02-17T00:14:35.807Z,4.10
2023-02-17T00:17:06.060Z,4.18
2023-02-17T00:19:36.206Z,4.18
2023-02-17T00:22:06.300Z,4.11
2023-02-17T00:24:40.647Z,4.18
2023-02-17T00:27:10.937Z,4.19
2023-02-17T00:29:41.027Z,4.20
2023-02-17T00:32:11.828Z,4.20
2023-02-17T00:34:42.007Z,4.19
2023-02-17T00:37:12.199Z,4.19
2023-02-17T00:39:42.524Z,4.19
2023-02-17T00:42:12.788Z,4.18
2023-02-17T00:44:43.073Z,4.20
2023-02-17T00:47:13.231Z,4.19
2023-02-17T00:49:43.400Z,4.18
2023-02-17T00:52:14.014Z,4.17
2023-02-17T00:54:44.590Z,4.18
2023-02-17T00:57:14.810Z,4.18
2023-02-17T00:59:45.032Z,4.17
2023-02-17T01:02:15.224Z,4.15
2023-02-17T01:04:45.495Z,4.17
2023-02-17T01:07:15.621Z,4.13
2023-02-17T01:09:45.803Z,4.06
2023-02-17T01:12:16.002Z,4.14
2023-02-17T01:14:46.157Z,4.11
2023-02-17T01:17:16.323Z,4.12
2023-02-17T01:19:46.474Z,4.11
2023-02-17T01:22:16.624Z,4.13
2023-02-17T01:24:47.060Z,4.12
2023-02-17T01:27:17.162Z,4.11
2023-02-17T01:29:47.391Z,4.13
2023-02-17T01:32:17.556Z,4.13
2023-02-17T01:34:49.097Z,4.13
2023-02-17T01:37:19.312Z,4.16
2023-02-17T01:39:49.423Z,4.16
2023-02-17T01:42:20.984Z,4.17
2023-02-17T01:45:19.083Z,4.18
2023-02-17T01:47:58.701Z,4.18
2023-02-17T01:50:33.290Z,4.19
2023-02-17T01:53:06.644Z,4.17
2023-02-17T01:55:38.852Z,4.19
2023-02-17T01:58:13.298Z,4.19
2023-02-17T02:00:43.808Z,4.21
2023-02-17T02:03:15.111Z,4.21
2023-02-17T02:05:45.518Z,4.22
2023-02-17T02:08:16.310Z,4.22
2023-02-17T02:10:46.443Z,4.22
2023-02-17T02:13:16.700Z,4.25
2023-02-17T02:16:08.585Z,4.23
2023-02-17T02:18:51.044Z,4.26
2023-02-17T02:21:52.090Z,4.26
2023-02-17T02:24:37.502Z,4.24
2023-02-17T02:27:28.708Z,4.21
2023-02-17T02:30:18.514Z,4.22
2023-02-17T02:33:15.003Z,4.20
2023-02-17T02:36:04.410Z,4.23
2023-02-17T02:38:40.851Z,4.17
2023-02-17T02:41:21.391Z,4.14
2023-02-17T02:43:52.521Z,4.13
2023-02-17T02:46:22.709Z,4.12
2023-02-17T02:48:53.595Z,4.12
2023-02-17T02:51:40.372Z,4.13
2023-02-17T02:54:10.371Z,4.20
2023-02-17T02:56:49.518Z,4.16
2023-02-17T02:59:26.672Z,4.14
2023-02-17T03:02:27.510Z,4.17
2023-02-17T03:05:43.447Z,4.19
2023-02-17T03:08:22.669Z,4.20
2023-02-17T03:10:54.617Z,4.17
2023-02-17T03:13:25.079Z,4.18
2023-02-17T03:15:55.409Z,4.20
2023-02-17T03:18:25.571Z,4.23
2023-02-17T03:21:02.493Z,4.26
2023-02-17T03:23:32.533Z,4.31
2023-02-17T03:26:02.790Z,4.27
2023-02-17T03:28:32.966Z,4.24
2023-02-17T03:31:03.192Z,4.20
2023-02-17T03:33:33.324Z,4.21
2023-02-17T03:36:03.639Z,4.21
2023-02-17T03:38:33.857Z,4.18
2023-02-17T03:41:04.197Z,4.23
2023-02-17T03:43:34.350Z,4.25
2023-02-17T03:46:05.187Z,4.27
2023-02-17T03:48:35.560Z,4.26
2023-02-17T03:51:17.926Z,4.26
2023-02-17T03:53:49.197Z,4.26
2023-02-17T03:56:19.761Z,4.24
2023-02-17T03:58:50.060Z,4.21
2023-02-17T04:01:20.330Z,4.22
2023-02-17T04:03:50.857Z,4.26
2023-02-17T04:06:20.963Z,4.23
2023-02-17T04:08:51.092Z,4.25
2023-02-17T04:11:21.352Z,4.21
2023-02-17T04:13:51.510Z,4.22
2023-02-17T04:16:21.661Z,4.25
2023-02-17T04:18:51.757Z,4.24
2023-02-17T04:21:22.157Z,4.24
2023-02-17T04:23:52.343Z,4.24
2023-02-17T04:26:22.521Z,4.23
2023-02-17T04:28:52.650Z,4.22
2023-02-17T04:31:23.170Z,4.25
2023-02-17T04:33:53.895Z,4.20
2023-02-17T04:36:24.154Z,4.22
2023-02-17T04:38:54.324Z,4.24
2023-02-17T04:41:24.449Z,4.27
2023-02-17T04:43:54.595Z,4.28
2023-02-17T04:46:24.737Z,4.31
2023-02-17T04:48:55.245Z,4.33
2023-02-17T04:51:25.292Z,4.33
2023-02-17T04:53:55.425Z,4.35
2023-02-17T04:56:25.610Z,4.34
2023-02-17T04:58:55.817Z,4.31
2023-02-17T05:01:25.979Z,4.34
2023-02-17T05:03:56.183Z,4.34
2023-02-17T05:06:26.262Z,4.36
2023-02-17T05:08:56.570Z,4.36
2023-02-17T05:11:26.764Z,4.39
2023-02-17T05:13:56.989Z,4.40
2023-02-17T05:16:27.325Z,4.39
2023-02-17T05:18:57.518Z,4.32
2023-02-17T05:21:27.622Z,4.41
2023-02-17T05:23:57.722Z,4.40
2023-02-17T05:26:27.939Z,4.37
2023-02-17T05:28:58.038Z,4.40
2023-02-17T05:31:28.370Z,4.40
2023-02-17T05:33:58.633Z,4.41
2023-02-17T05:36:28.798Z,4.40
2023-02-17T05:38:59.058Z,4.34
2023-02-17T05:41:29.308Z,4.42
2023-02-17T05:43:59.380Z,4.42
2023-02-17T05:46:29.565Z,4.43
2023-02-17T05:48:59.743Z,4.36
2023-02-17T05:51:29.924Z,4.44
2023-02-17T05:54:00.159Z,4.42
2023-02-17T05:56:30.353Z,4.42
2023-02-17T05:59:01.180Z,4.40
2023-02-17T06:01:31.636Z,4.42
2023-02-17T06:04:01.793Z,4.39
2023-02-17T06:06:31.934Z,4.41
2023-02-17T06:09:02.084Z,4.37
2023-02-17T06:11:32.695Z,4.37
2023-02-17T06:14:02.982Z,4.34
2023-02-17T06:16:33.322Z,4.32
2023-02-17T06:19:05.407Z,4.34
2023-02-17T06:21:35.722Z,4.33
2023-02-17T06:24:06.249Z,4.33
2023-02-17T06:26:36.355Z,4.28
2023-02-17T06:29:07.097Z,4.31
2023-02-17T06:31:37.304Z,4.30
2023-02-17T06:34:07.508Z,4.33
2023-02-17T06:36:37.635Z,4.30
2023-02-17T06:39:07.807Z,4.28
2023-02-17T06:41:38.088Z,4.32
2023-02-17T06:44:08.427Z,4.33
2023-02-17T06:46:38.681Z,4.32
2023-02-17T06:49:08.765Z,4.27
2023-02-17T06:51:38.912Z,4.28
2023-02-17T06:54:09.072Z,4.30
2023-02-17T06:56:39.425Z,4.30
2023-02-17T06:59:09.736Z,4.35
2023-02-17T07:01:40.122Z,4.34
2023-02-17T07:04:10.389Z,4.38
2023-02-17T07:06:40.556Z,4.42
2023-02-17T07:09:13.721Z,4.43
2023-02-17T07:11:45.443Z,4.41
2023-02-17T07:14:16.730Z,4.46
2023-02-17T07:16:48.001Z,4.45
2023-02-17T07:19:18.468Z,4.46
2023-02-17T07:21:49.457Z,4.46
2023-02-17T07:24:19.597Z,4.45
2023-02-17T07:26:49.821Z,4.37
2023-02-17T07:29:19.908Z,4.43
2023-02-17T07:31:50.069Z,4.48
2023-02-17T07:34:20.282Z,4.45
2023-02-17T07:36:50.455Z,4.48
2023-02-17T07:39:20.627Z,4.45
2023-02-17T07:41:50.754Z,4.45
2023-02-17T07:44:20.901Z,4.38
2023-02-17T07:46:51.074Z,4.48
2023-02-17T07:49:21.198Z,4.45
2023-02-17T07:51:51.624Z,4.48
2023-02-17T07:54:21.743Z,4.50
2023-02-17T07:56:51.948Z,4.48
2023-02-17T07:59:22.226Z,4.57
2023-02-17T08:01:52.754Z,4.55
2023-02-17T08:04:23.009Z,4.54
2023-02-17T08:06:53.126Z,4.56
2023-02-17T08:09:41.733Z,4.57
2023-02-17T08:12:38.546Z,4.61
2023-02-17T08:15:10.769Z,4.63
2023-02-17T08:17:41.004Z,4.63
2023-02-17T08:20:13.421Z,4.66
2023-02-17T08:22:43.554Z,4.66
2023-02-17T08:25:13.673Z,4.69
2023-02-17T08:27:56.097Z,4.70
2023-02-17T08:30:26.273Z,4.73
2023-02-17T08:32:56.467Z,4.74
2023-02-17T08:35:26.642Z,4.72
2023-02-17T08:37:56.749Z,4.69
2023-02-17T08:40:26.940Z,4.74
2023-02-17T08:42:57.220Z,4.77
2023-02-17T08:45:27.438Z,4.79
2023-02-17T08:47:57.624Z,4.84
2023-02-17T08:50:27.921Z,4.88
2023-02-17T08:52:58.766Z,4.87
2023-02-17T08:55:33.465Z,4.86
2023-02-17T08:58:11.052Z,4.90
2023-02-17T09:00:41.246Z,4.85
2023-02-17T09:03:12.308Z,4.91
2023-02-17T09:05:42.561Z,4.87
2023-02-17T09:08:12.824Z,4.86
2023-02-17T09:10:43.975Z,4.94
2023-02-17T09:13:14.914Z,4.93
2023-02-17T09:15:45.375Z,4.92
2023-02-17T09:18:16.588Z,4.97
2023-02-17T09:20:47.006Z,4.96
2023-02-17T09:23:20.397Z,5.02
2023-02-17T09:25:50.520Z,5.08
2023-02-17T09:28:20.709Z,5.06
2023-02-17T09:30:51.068Z,5.08
2023-02-17T09:33:21.303Z,5.10
2023-02-17T09:35:52.495Z,5.11
2023-02-17T09:38:25.778Z,5.09
2023-02-17T09:41:01.221Z,5.11
2023-02-17T09:43:32.596Z,5.08
2023-02-17T09:46:09.780Z,5.20
2023-02-17T09:48:41.184Z,5.21
2023-02-17T09:51:21.945Z,5.19
2023-02-17T09:54:11.061Z,5.18
2023-02-17T09:56:46.333Z,5.10
2023-02-17T09:59:19.678Z,5.09
2023-02-17T10:01:52.808Z,5.10
2023-02-17T10:04:26.381Z,5.12
2023-02-17T10:07:11.637Z,5.04
2023-02-17T10:09:55.933Z,5.08
2023-02-17T10:12:31.078Z,5.05
2023-02-17T10:15:21.133Z,5.07
2023-02-17T10:18:06.327Z,5.05
2023-02-17T10:20:42.414Z,5.06
2023-02-17T10:23:22.810Z,5.06
2023-02-17T10:25:58.827Z,5.10
2023-02-17T10:28:56.032Z,5.09
2023-02-17T10:31:35.661Z,5.13
2023-02-17T10:34:17.598Z,5.13
2023-02-17T10:37:02.138Z,5.01
2023-02-17T10:39:51.414Z,5.11
2023-02-17T10:42:27.438Z,5.12
2023-02-17T10:45:04.464Z,5.17
2023-02-17T10:47:37.060Z,5.15
2023-02-17T10:50:26.737Z,5.11
2023-02-17T10:52:57.711Z,5.09
2023-02-17T10:55:45.161Z,5.11
2023-02-17T10:58:38.894Z,5.06
2023-02-17T11:01:09.181Z,5.09
2023-02-17T11:03:43.959Z,5.08
2023-02-17T11:06:17.528Z,5.13
2023-02-17T11:08:52.389Z,5.11
2023-02-17T11:11:29.612Z,5.01
2023-02-17T11:14:19.936Z,4.99
2023-02-17T11:17:02.640Z,4.90
2023-02-17T11:19:36.684Z,4.94
2023-02-17T11:22:30.280Z,4.97
2023-02-17T11:25:03.923Z,4.95
2023-02-17T11:27:34.078Z,4.96
2023-02-17T11:30:15.225Z,4.99
2023-02-17T11:32:45.732Z,4.94
2023-02-17T11:35:21.594Z,4.97
2023-02-17T11:37:52.025Z,4.94
2023-02-17T11:40:32.303Z,4.95
2023-02-17T11:43:04.907Z,4.94
2023-02-17T11:45:44.325Z,4.96
2023-02-17T11:48:41.597Z,4.96
2023-02-17T11:51:18.926Z,4.97
2023-02-17T11:54:11.908Z,4.99
2023-02-17T11:56:47.320Z,5.00
2023-02-17T11:59:42.168Z,4.95
2023-02-17T12:02:18.144Z,4.93
2023-02-17T12:05:05.905Z,4.90
2023-02-17T12:07:45.796Z,4.97
2023-02-17T12:10:27.735Z,4.95
2023-02-17T12:13:21.046Z,4.95
2023-02-17T12:15:58.419Z,4.99
2023-02-17T12:19:03.392Z,5.02
2023-02-17T12:21:54.986Z,4.99
2023-02-17T12:24:25.067Z,4.99
2023-02-17T12:27:49.189Z,4.99
2023-02-17T12:30:37.110Z,4.97
2023-02-17T12:33:28.593Z,4.96
2023-02-17T12:36:05.190Z,5.00
2023-02-17T12:38:42.306Z,4.97
2023-02-17T12:41:12.270Z,4.95
2023-02-17T12:43:56.127Z,4.93
2023-02-17T12:46:32.989Z,4.94
2023-02-17T12:49:10.456Z,4.91
2023-02-17T12:52:06.749Z,4.89
2023-02-17T12:54:39.646Z,4.83
2023-02-17T12:57:23.385Z,4.86
2023-02-17T12:59:54.763Z,4.85
2023-02-17T13:02:26.511Z,4.88
2023-02-17T13:05:02.282Z,4.83
2023-02-17T13:08:17.685Z,4.86
2023-02-17T13:10:48.095Z,4.82
2023-02-17T13:13:33.114Z,4.80
2023-02-17T13:16:11.443Z,4.84
2023-02-17T13:18:50.258Z,4.85
2023-02-17T13:21:24.949Z,4.86
2023-02-17T13:24:15.219Z,4.84
2023-02-17T13:26:45.417Z,4.79
2023-02-17T13:29:24.803Z,4.84
2023-02-17T13:31:57.802Z,4.85
2023-02-17T13:34:42.492Z,4.79
2023-02-17T13:37:18.506Z,4.81
2023-02-17T13:39:48.727Z,4.77
2023-02-17T13:42:41.209Z,4.79
2023-02-17T13:45:16.154Z,4.73
2023-02-17T13:47:47.997Z,4.75
2023-02-17T13:50:29.185Z,4.80
2023-02-17T13:53:00.789Z,4.77
2023-02-17T13:55:30.999Z,4.78
2023-02-17T13:58:01.758Z,4.79
2023-02-17T14:00:32.274Z,4.80
2023-02-17T14:03:24.803Z,4.86
2023-02-17T14:06:00.358Z,4.86
2023-02-17T14:08:41.371Z,4.86
2023-02-17T14:11:16.408Z,4.86
2023-02-17T14:13:48.685Z,4.87
2023-02-17T14:16:39.476Z,4.93
2023-02-17T14:19:15.837Z,4.92
2023-02-17T14:21:56.885Z,4.95
2023-02-17T14:24:34.114Z,4.95
2023-02-17T14:27:09.824Z,4.95
2023-02-17T14:29:45.096Z,4.95
2023-02-17T14:32:28.704Z,4.98
2023-02-17T14:35:13.902Z,5.02
2023-02-17T14:37:44.117Z,5.01
2023-02-17T14:40:24.510Z,5.03
2023-02-17T14:42:54.626Z,5.03
2023-02-17T14:45:24.828Z,5.00
2023-02-17T14:47:56.684Z,5.02
2023-02-17T14:50:26.961Z,5.07
2023-02-17T14:52:57.056Z,5.05
2023-02-17T14:55:35.914Z,5.09
2023-02-17T14:58:06.018Z,5.06
2023-02-17T15:00:36.161Z,5.09
2023-02-17T15:03:06.279Z,5.11
2023-02-17T15:05:36.458Z,5.15
2023-02-17T15:08:08.851Z,5.14
2023-02-17T15:10:40.139Z,5.16
2023-02-17T15:13:17.027Z,5.13
2023-02-17T15:15:49.518Z,5.14
2023-02-17T15:18:21.293Z,5.20
2023-02-17T15:20:52.042Z,5.19
2023-02-17T15:23:25.805Z,5.19
2023-02-17T15:25:56.679Z,5.16
2023-02-17T15:28:26.763Z,5.15
2023-02-17T15:30:57.202Z,5.13
2023-02-17T15:33:27.482Z,5.19
2023-02-17T15:36:00.767Z,5.16
2023-02-17T15:38:30.887Z,5.18
2023-02-17T15:41:01.928Z,5.19
2023-02-17T15:46:13.619Z,5.25
2023-02-17T15:48:45.393Z,5.27
2023-02-17T15:51:19.602Z,5.26
2023-02-17T15:53:50.080Z,5.28
2023-02-17T15:56:30.332Z,5.28
2023-02-17T15:59:08.525Z,5.30
2023-02-17T16:01:39.039Z,5.29
2023-02-17T16:04:12.127Z,5.33
2023-02-17T16:06:42.746Z,5.36
2023-02-17T16:09:12.813Z,5.30
2023-02-17T16:11:54.397Z,5.35
2023-02-17T16:14:37.161Z,5.37
2023-02-17T16:17:14.958Z,5.42
2023-02-17T16:19:45.088Z,5.37
2023-02-17T16:22:15.305Z,5.38
2023-02-17T16:24:45.643Z,5.42
2023-02-17T16:27:17.009Z,5.44
2023-02-17T16:29:47.232Z,5.47
2023-02-17T16:32:17.319Z,5.43
2023-02-17T16:34:48.593Z,5.49
2023-02-17T16:37:18.781Z,5.51
2023-02-17T16:39:48.884Z,5.51
2023-02-17T16:42:19.124Z,5.53
2023-02-17T16:44:49.213Z,5.51
2023-02-17T16:47:22.697Z,5.57
2023-02-17T16:49:52.907Z,5.57
2023-02-17T16:52:27.874Z,5.57
2023-02-17T16:54:58.971Z,5.60
2023-02-17T16:57:29.090Z,5.62
2023-02-17T16:59:59.258Z,5.65
2023-02-17T17:02:29.391Z,5.65
2023-02-17T17:04:59.573Z,5.65
2023-02-17T17:07:31.673Z,5.61
2023-02-17T17:10:17.541Z,5.73
2023-02-17T17:12:47.910Z,5.74
2023-02-17T17:15:20.015Z,5.77
2023-02-17T17:17:56.237Z,5.80
2023-02-17T17:20:34.349Z,5.83
2023-02-17T17:23:12.387Z,5.83
2023-02-17T17:25:46.858Z,5.83
2023-02-17T17:28:19.244Z,5.86
2023-02-17T17:30:50.044Z,5.88
2023-02-17T17:33:20.152Z,5.89
2023-02-17T17:35:50.417Z,5.93
2023-02-17T17:38:20.510Z,5.90
2023-02-17T17:40:50.756Z,5.95
2023-02-17T17:43:23.555Z,5.98
2023-02-17T17:45:54.926Z,5.99
2023-02-17T17:48:25.071Z,6.01
2023-02-17T17:50:55.226Z,5.97
2023-02-17T17:53:25.375Z,5.97
2023-02-17T17:55:55.544Z,6.00
2023-02-17T17:58:25.820Z,6.00
2023-02-17T18:00:56.069Z,6.04
2023-02-17T18:03:26.362Z,6.05
2023-02-17T18:05:56.814Z,6.07
2023-02-17T18:08:27.844Z,6.08
2023-02-17T18:10:58.262Z,6.11
2023-02-17T18:13:28.561Z,6.12
2023-02-17T18:15:59.361Z,6.13
2023-02-17T18:18:29.844Z,6.15
2023-02-17T18:21:00.318Z,6.15
2023-02-17T18:23:30.520Z,6.21
2023-02-17T18:26:00.746Z,6.22
2023-02-17T18:28:30.887Z,6.15
2023-02-17T18:31:16.024Z,6.24
2023-02-17T18:33:46.237Z,6.30
2023-02-17T18:36:19.944Z,6.28
2023-02-17T18:38:50.235Z,6.29
2023-02-17T18:41:25.848Z,6.32
2023-02-17T18:43:58.245Z,6.30
2023-02-17T18:46:28.947Z,6.34
2023-02-17T18:49:00.433Z,6.33
2023-02-17T18:51:31.773Z,6.36
2023-02-17T18:54:06.105Z,6.36
2023-02-17T18:56:36.338Z,6.38
2023-02-17T18:59:06.782Z,6.30
2023-02-17T19:01:41.102Z,6.39
2023-02-17T19:04:13.086Z,6.41
2023-02-17T19:06:43.353Z,6.42
2023-02-17T19:09:13.511Z,6.44
2023-02-17T19:11:43.657Z,6.44
2023-02-17T19:14:13.863Z,6.41
2023-02-17T19:16:43.980Z,6.43
2023-02-17T19:19:14.168Z,6.44
2023-02-17T19:21:44.242Z,6.40
2023-02-17T19:24:16.471Z,6.35
2023-02-17T19:26:46.886Z,6.41
2023-02-17T19:29:17.366Z,6.43
2023-02-17T19:31:47.834Z,6.41
2023-02-17T19:34:20.220Z,6.40
2023-02-17T19:36:50.537Z,6.31
2023-02-17T19:39:20.792Z,6.28
2023-02-17T19:41:51.069Z,6.23
2023-02-17T19:44:21.275Z,6.12
2023-02-17T19:46:51.487Z,6.15
2023-02-17T19:49:21.675Z,6.12
2023-02-17T19:51:54.011Z,6.08
2023-02-17T19:54:24.570Z,6.09
2023-02-17T19:56:54.821Z,6.07
2023-02-17T19:59:24.989Z,6.00
2023-02-17T20:01:55.208Z,6.00
2023-02-17T20:04:25.493Z,6.03
2023-02-17T20:06:55.658Z,6.07
2023-02-17T20:09:25.923Z,6.06
2023-02-17T20:11:56.368Z,6.00
2023-02-17T20:14:26.554Z,5.96
2023-02-17T20:16:56.799Z,5.93
2023-02-17T20:19:28.349Z,5.89
2023-02-17T20:22:00.784Z,5.90
2023-02-17T20:24:31.102Z,5.91
2023-02-17T20:27:02.227Z,5.90
2023-02-17T20:29:32.602Z,5.86
2023-02-17T20:32:03.553Z,5.88
2023-02-17T20:34:38.663Z,5.95
2023-02-17T20:37:09.606Z,5.95
2023-02-17T20:39:41.267Z,5.96
2023-02-17T20:42:11.343Z,5.99
2023-02-17T20:44:42.201Z,5.98
2023-02-17T20:47:12.273Z,5.98
2023-02-17T20:49:42.407Z,5.95
2023-02-17T20:52:12.932Z,5.93
2023-02-17T20:54:44.748Z,5.96
2023-02-17T20:57:16.324Z,5.96
2023-02-17T20:59:47.097Z,5.94
2023-02-17T21:02:18.213Z,5.90
2023-02-17T21:04:48.401Z,5.91
2023-02-17T21:07:18.513Z,5.96
2023-02-17T21:09:49.204Z,5.94
2023-02-17T21:12:19.633Z,5.90
2023-02-17T21:14:50.070Z,5.88
2023-02-17T21:17:20.207Z,5.89
2023-02-17T21:19:50.914Z,5.91
2023-02-17T21:22:21.076Z,5.91
2023-02-17T21:24:51.191Z,5.92
2023-02-17T21:27:23.884Z,5.92
2023-02-17T21:29:54.289Z,5.92
2023-02-17T21:32:25.829Z,5.92
2023-02-17T21:34:55.983Z,5.90
2023-02-17T21:37:26.173Z,5.79
2023-02-17T21:39:56.375Z,5.74
2023-02-17T21:42:46.008Z,5.75
2023-02-17T21:45:16.248Z,5.81
2023-02-17T21:47:46.449Z,5.80
2023-02-17T21:50:17.856Z,5.79
2023-02-17T21:52:47.998Z,5.76
2023-02-17T21:55:18.152Z,5.75
2023-02-17T21:57:48.439Z,5.75
2023-02-17T22:00:18.827Z,5.73
2023-02-17T22:02:49.092Z,5.77
2023-02-17T22:05:19.315Z,5.72
2023-02-17T22:07:50.732Z,5.74
2023-02-17T22:10:20.889Z,5.74
2023-02-17T22:12:52.820Z,5.69
2023-02-17T22:15:23.166Z,5.70
2023-02-17T22:17:53.226Z,5.66
2023-02-17T22:20:23.418Z,5.52
2023-02-17T22:22:54.140Z,5.50
2023-02-17T22:25:25.038Z,5.45
2023-02-17T22:27:55.174Z,5.46
2023-02-17T22:30:25.423Z,5.41
2023-02-17T22:32:55.828Z,5.46
2023-02-17T22:35:26.027Z,5.43
2023-02-17T22:37:57.710Z,5.35
2023-02-17T22:40:27.795Z,5.16
2023-02-17T22:42:57.976Z,5.00
2023-02-17T22:45:28.101Z,4.89
2023-02-17T22:47:58.289Z,4.85
2023-02-17T22:50:28.402Z,4.81
2023-02-17T22:52:58.530Z,4.77
2023-02-17T22:55:28.640Z,4.70
2023-02-17T22:57:58.777Z,4.73
2023-02-17T23:00:28.930Z,4.66
2023-02-17T23:02:58.992Z,4.69
2023-02-17T23:05:29.764Z,4.71
2023-02-17T23:07:59.841Z,4.78
2023-02-17T23:10:30.018Z,4.77
2023-02-17T23:13:00.159Z,4.78
2023-02-17T23:15:42.188Z,4.82
2023-02-17T23:18:15.947Z,4.83
2023-02-17T23:20:49.782Z,4.83
2023-02-17T23:23:20.488Z,4.86
2023-02-17T23:25:55.510Z,4.85
2023-02-17T23:28:26.109Z,4.83
2023-02-17T23:30:56.237Z,4.84
2023-02-17T23:33:26.351Z,4.80
2023-02-17T23:35:56.515Z,4.86
2023-02-17T23:38:26.640Z,4.91
2023-02-17T23:40:57.168Z,4.94
2023-02-17T23:43:28.279Z,4.95
2023-02-17T23:45:59.871Z,5.00
2023-02-17T23:48:30.757Z,5.02
2023-02-17T23:51:05.999Z,5.02
2023-02-17T23:53:36.348Z,5.04
2023-02-17T23:56:11.160Z,5.01
2023-02-17T23:58:41.946Z,5.03
